createdAt,value
2023-05-18T00:00:09.944Z,1.39
2023-05-18T00:02:37.237Z,1.34
2023-05-18T00:05:05.129Z,1.22
2023-05-18T00:07:32.263Z,1.34
2023-05-18T00:09:59.719Z,1.19
2023-05-18T00:12:28.441Z,1.29
2023-05-18T00:14:55.623Z,1.19
2023-05-18T00:17:22.914Z,1.21
2023-05-18T00:19:50.285Z,1.17
2023-05-18T00:22:17.762Z,1.45
2023-05-18T00:24:45.322Z,1.52
2023-05-18T00:27:12.788Z,1.30
2023-05-18T00:29:41.412Z,1.26
2023-05-18T00:32:08.630Z,1.38
2023-05-18T00:34:35.825Z,1.25
2023-05-18T00:37:03.045Z,1.14
2023-05-18T00:39:30.287Z,1.32
2023-05-18T00:41:57.494Z,1.39
2023-05-18T00:44:25.070Z,1.35
2023-05-18T00:46:53.688Z,1.22
2023-05-18T00:49:21.155Z,1.44
2023-05-18T00:51:49.627Z,1.66
2023-05-18T00:54:17.570Z,1.61
2023-05-18T00:56:45.288Z,1.45
2023-05-18T00:59:12.728Z,1.35
2023-05-18T01:01:40.048Z,1.72
2023-05-18T01:04:08.750Z,1.62
2023-05-18T01:06:37.892Z,1.71
2023-05-18T01:09:09.236Z,1.89
2023-05-18T01:11:59.987Z,1.54
2023-05-18T01:14:34.289Z,1.52
2023-05-18T01:17:12.994Z,1.49
2023-05-18T01:20:12.079Z,1.63
2023-05-18T01:22:59.169Z,1.35
2023-05-18T01:25:34.707Z,1.35
2023-05-18T01:28:08.741Z,1.61
2023-05-18T01:30:40.673Z,1.37
2023-05-18T01:33:08.647Z,1.45
2023-05-18T01:35:36.688Z,1.38
2023-05-18T01:38:04.509Z,1.72
2023-05-18T01:40:37.724Z,1.49
2023-05-18T01:43:15.488Z,1.58
2023-05-18T01:45:47.291Z,1.51
2023-05-18T01:48:21.600Z,1.68
2023-05-18T01:50:52.248Z,1.51
2023-05-18T01:53:25.521Z,1.61
2023-05-18T01:55:55.736Z,1.91
2023-05-18T01:58:25.269Z,1.61
2023-05-18T02:00:53.088Z,1.57
2023-05-18T02:03:21.164Z,1.53
2023-05-18T02:05:48.489Z,1.60
2023-05-18T02:08:15.621Z,1.61
2023-05-18T02:10:42.673Z,1.48
2023-05-18T02:13:10.006Z,1.49
2023-05-18T02:15:38.630Z,1.56
2023-05-18T02:18:06.400Z,1.44
2023-05-18T02:20:33.786Z,1.55
2023-05-18T02:23:01.073Z,1.81
2023-05-18T02:25:28.253Z,1.43
2023-05-18T02:27:55.454Z,1.73
2023-05-18T02:30:22.729Z,1.44
2023-05-18T02:32:51.487Z,1.56
2023-05-18T02:35:18.826Z,1.56
2023-05-18T02:37:46.026Z,1.42
2023-05-18T02:40:14.045Z,1.59
2023-05-18T02:42:41.612Z,1.60
2023-05-18T02:45:09.864Z,1.62
2023-05-18T02:47:37.191Z,1.27
2023-05-18T02:50:07.106Z,1.35
2023-05-18T02:52:34.382Z,1.40
2023-05-18T02:55:01.614Z,1.66
2023-05-18T02:57:28.909Z,1.55
2023-05-18T02:59:56.068Z,1.80
2023-05-18T03:02:23.316Z,1.56
2023-05-18T03:04:51.069Z,1.59
2023-05-18T03:07:19.924Z,1.29
2023-05-18T03:09:47.290Z,1.53
2023-05-18T03:12:14.509Z,1.83
2023-05-18T03:14:41.765Z,1.52
2023-05-18T03:17:09.021Z,1.58
2023-05-18T03:19:36.433Z,1.50
2023-05-18T03:22:03.815Z,1.41
2023-05-18T03:24:32.330Z,1.63
2023-05-18T03:26:59.691Z,1.70
2023-05-18T03:29:27.325Z,1.68
2023-05-18T03:31:55.667Z,1.48
2023-05-18T03:34:22.890Z,1.55
2023-05-18T03:36:50.214Z,1.38
2023-05-18T03:39:17.414Z,1.59
2023-05-18T03:41:46.011Z,1.66
2023-05-18T03:44:13.191Z,1.59
2023-05-18T03:46:40.454Z,1.72
2023-05-18T03:49:07.700Z,1.52
2023-05-18T03:51:34.953Z,1.50
2023-05-18T03:54:02.096Z,1.33
2023-05-18T03:56:29.293Z,1.57
2023-05-18T03:58:57.979Z,1.49
2023-05-18T04:01:25.213Z,1.60
2023-05-18T04:03:52.540Z,1.48
2023-05-18T04:06:19.733Z,1.48
2023-05-18T04:08:46.931Z,1.61
2023-05-18T04:11:14.256Z,1.64
2023-05-18T04:13:41.572Z,1.64
2023-05-18T04:16:10.529Z,1.66
2023-05-18T04:18:37.726Z,1.47
2023-05-18T04:21:05.530Z,1.56
2023-05-18T04:23:32.973Z,1.60
2023-05-18T04:26:00.271Z,1.64
2023-05-18T04:28:27.408Z,1.52
2023-05-18T04:30:54.592Z,1.70
2023-05-18T04:33:23.194Z,1.39
2023-05-18T04:35:51.752Z,1.43
2023-05-18T04:38:18.932Z,1.67
2023-05-18T04:40:46.107Z,1.57
2023-05-18T04:43:13.349Z,1.78
2023-05-18T04:45:40.620Z,1.76
2023-05-18T04:48:08.051Z,1.52
2023-05-18T04:50:36.771Z,1.56
2023-05-18T04:53:05.573Z,1.51
2023-05-18T04:55:33.008Z,1.58
2023-05-18T04:58:00.949Z,1.65
2023-05-18T05:00:29.695Z,1.66
2023-05-18T05:02:58.589Z,1.39
2023-05-18T05:05:26.207Z,1.53
2023-05-18T05:07:55.645Z,1.59
2023-05-18T05:10:23.271Z,1.60
2023-05-18T05:12:51.086Z,1.27
2023-05-18T05:15:18.433Z,1.67
2023-05-18T05:17:46.876Z,1.48
2023-05-18T05:20:14.567Z,1.78
2023-05-18T05:22:41.913Z,1.49
2023-05-18T05:25:11.149Z,1.47
2023-05-18T05:27:38.517Z,1.43
2023-05-18T05:30:07.386Z,1.52
2023-05-18T05:32:34.695Z,1.37
2023-05-18T05:35:01.927Z,1.47
2023-05-18T05:37:29.105Z,1.63
2023-05-18T05:39:56.242Z,1.58
2023-05-18T05:42:25.010Z,1.22
2023-05-18T05:44:52.208Z,1.36
2023-05-18T05:47:19.471Z,1.48
2023-05-18T05:49:46.669Z,1.52
2023-05-18T05:52:14.031Z,1.44
2023-05-18T05:54:41.802Z,1.52
2023-05-18T05:57:08.991Z,1.55
2023-05-18T05:59:37.611Z,1.59
2023-05-18T06:02:05.309Z,1.31
2023-05-18T06:04:32.718Z,1.30
2023-05-18T06:07:00.044Z,1.47
2023-05-18T06:09:27.286Z,1.52
2023-05-18T06:11:55.109Z,1.56
2023-05-18T06:14:22.225Z,1.37
2023-05-18T06:16:50.862Z,1.37
2023-05-18T06:19:18.296Z,1.58
2023-05-18T06:21:45.887Z,1.35
2023-05-18T06:24:13.069Z,1.39
2023-05-18T06:26:40.226Z,1.35
2023-05-18T06:29:07.398Z,1.80
2023-05-18T06:31:34.815Z,1.49
2023-05-18T06:34:03.730Z,1.49
2023-05-18T06:36:30.970Z,1.27
2023-05-18T06:38:58.093Z,1.32
2023-05-18T06:41:25.333Z,1.15
2023-05-18T06:43:52.528Z,1.25
2023-05-18T06:46:20.740Z,1.59
2023-05-18T06:48:48.016Z,1.46
2023-05-18T06:51:16.782Z,1.58
2023-05-18T06:53:44.386Z,1.59
2023-05-18T06:56:11.659Z,1.56
2023-05-18T06:58:38.845Z,1.45
2023-05-18T07:01:06.153Z,1.55
2023-05-18T07:03:33.403Z,1.44
2023-05-18T07:06:01.007Z,1.55
2023-05-18T07:08:29.674Z,1.52
2023-05-18T07:10:56.932Z,1.45
2023-05-18T07:13:24.890Z,1.22
2023-05-18T07:15:52.122Z,1.38
2023-05-18T07:18:19.553Z,1.41
2023-05-18T07:20:46.751Z,1.28
2023-05-18T07:23:14.252Z,1.38
2023-05-18T07:25:43.013Z,1.42
2023-05-18T07:28:10.230Z,1.34
2023-05-18T07:30:37.516Z,1.26
2023-05-18T07:33:04.799Z,1.28
2023-05-18T07:35:32.240Z,1.15
2023-05-18T07:37:59.836Z,1.52
2023-05-18T07:40:27.249Z,1.44
2023-05-18T07:42:56.231Z,1.40
2023-05-18T07:45:23.474Z,1.35
2023-05-18T07:47:50.739Z,1.32
2023-05-18T07:50:18.011Z,1.24
2023-05-18T07:52:45.251Z,1.49
2023-05-18T07:55:12.706Z,1.35
2023-05-18T07:57:40.315Z,1.30
2023-05-18T08:00:10.667Z,1.50
2023-05-18T08:02:38.286Z,1.47
2023-05-18T08:05:06.631Z,1.38
2023-05-18T08:07:33.727Z,1.23
2023-05-18T08:10:00.892Z,1.23
2023-05-18T08:12:28.033Z,1.22
2023-05-18T08:14:55.190Z,1.11
2023-05-18T08:17:23.928Z,1.28
2023-05-18T08:19:51.125Z,1.40
2023-05-18T08:22:18.255Z,1.33
2023-05-18T08:24:45.398Z,1.44
2023-05-18T08:27:12.768Z,1.39
2023-05-18T08:29:39.969Z,1.31
2023-05-18T08:32:07.805Z,1.41
2023-05-18T08:34:36.507Z,1.46
2023-05-18T08:37:03.866Z,1.28
2023-05-18T08:39:31.192Z,1.27
2023-05-18T08:42:03.677Z,1.44
2023-05-18T08:44:40.452Z,1.36
2023-05-18T08:47:10.413Z,1.31
2023-05-18T08:49:42.629Z,1.50
2023-05-18T08:52:16.426Z,1.44
2023-05-18T08:54:44.367Z,1.48
2023-05-18T08:57:12.886Z,1.42
2023-05-18T08:59:42.666Z,1.71
2023-05-18T09:02:10.705Z,1.64
2023-05-18T09:04:41.965Z,1.52
2023-05-18T09:07:10.751Z,1.49
2023-05-18T09:09:40.872Z,1.41
2023-05-18T09:12:10.021Z,1.36
2023-05-18T09:14:37.547Z,1.45
2023-05-18T09:17:05.191Z,1.49
2023-05-18T09:19:32.326Z,1.61
2023-05-18T09:22:01.078Z,1.69
2023-05-18T09:24:28.905Z,1.68
2023-05-18T09:26:56.220Z,1.33
2023-05-18T09:29:23.401Z,1.42
2023-05-18T09:31:51.389Z,1.73
2023-05-18T09:34:18.469Z,1.39
2023-05-18T09:36:48.167Z,1.61
2023-05-18T09:39:17.061Z,1.50
2023-05-18T09:41:44.745Z,1.72
2023-05-18T09:44:12.022Z,1.72
2023-05-18T09:46:40.369Z,1.54
2023-05-18T09:49:08.601Z,1.52
2023-05-18T09:51:37.416Z,1.34
2023-05-18T09:54:07.211Z,1.37
2023-05-18T09:56:38.291Z,1.61
2023-05-18T09:59:10.099Z,1.48
2023-05-18T10:01:38.303Z,1.59
2023-05-18T10:04:05.973Z,1.41
2023-05-18T10:06:33.225Z,1.55
2023-05-18T10:09:03.240Z,1.46
2023-05-18T10:11:32.649Z,1.49
2023-05-18T10:14:01.327Z,1.58
2023-05-18T10:16:29.574Z,1.35
2023-05-18T10:18:57.452Z,1.49
2023-05-18T10:21:30.970Z,1.56
2023-05-18T10:24:02.608Z,1.52
2023-05-18T10:26:33.393Z,1.53
2023-05-18T10:29:02.948Z,1.63
2023-05-18T10:31:31.255Z,1.47
2023-05-18T10:34:00.263Z,1.43
2023-05-18T10:36:30.193Z,1.44
2023-05-18T10:39:00.511Z,1.65
2023-05-18T10:41:30.786Z,1.51
2023-05-18T10:44:02.333Z,1.52
2023-05-18T10:46:30.686Z,1.55
2023-05-18T10:49:01.348Z,1.58
2023-05-18T10:51:31.044Z,1.56
2023-05-18T10:54:11.843Z,1.51
2023-05-18T10:56:42.047Z,1.35
2023-05-18T10:59:13.204Z,1.17
2023-05-18T11:01:42.849Z,1.33
2023-05-18T11:04:10.325Z,1.14
2023-05-18T11:06:37.632Z,1.44
2023-05-18T11:09:05.209Z,1.57
2023-05-18T11:11:51.524Z,2.31
2023-05-18T11:14:28.270Z,2.26
2023-05-18T11:17:16.027Z,2.35
2023-05-18T11:20:12.023Z,2.17
2023-05-18T11:22:50.564Z,2.08
2023-05-18T11:25:53.941Z,2.03
2023-05-18T11:28:22.845Z,1.83
2023-05-18T11:30:54.585Z,1.88
2023-05-18T11:33:25.200Z,1.81
2023-05-18T11:35:57.585Z,1.96
2023-05-18T11:38:52.363Z,2.32
2023-05-18T11:41:34.368Z,2.06
2023-05-18T11:44:18.219Z,2.12
2023-05-18T11:47:00.922Z,2.14
2023-05-18T11:49:31.082Z,1.94
2023-05-18T11:52:03.745Z,2.40
2023-05-18T11:54:41.590Z,2.14
2023-05-18T11:57:10.955Z,2.24
2023-05-18T11:59:41.060Z,2.09
2023-05-18T12:02:11.114Z,2.08
2023-05-18T12:04:48.480Z,1.93
2023-05-18T12:07:17.345Z,1.89
2023-05-18T12:09:45.596Z,1.96
2023-05-18T12:12:14.432Z,1.84
2023-05-18T12:14:42.883Z,2.41
2023-05-18T12:17:12.204Z,2.05
2023-05-18T12:19:43.940Z,2.23
2023-05-18T12:22:12.377Z,1.66
2023-05-18T12:24:40.442Z,1.45
2023-05-18T12:27:09.363Z,1.98
2023-05-18T12:29:39.312Z,1.66
2023-05-18T12:32:09.119Z,1.59
2023-05-18T12:34:39.102Z,2.07
2023-05-18T12:37:07.002Z,1.95
2023-05-18T12:39:34.696Z,1.96
2023-05-18T12:42:13.693Z,1.83
2023-05-18T12:44:42.603Z,2.26
2023-05-18T12:47:11.460Z,2.12
2023-05-18T12:49:41.610Z,2.03
2023-05-18T12:52:11.202Z,2.08
2023-05-18T12:54:49.117Z,2.02
2023-05-18T12:57:16.843Z,1.96
2023-05-18T12:59:48.405Z,1.70
2023-05-18T13:02:29.257Z,1.91
2023-05-18T13:05:09.744Z,1.91
2023-05-18T13:07:39.363Z,2.09
2023-05-18T13:10:08.858Z,2.34
2023-05-18T13:12:41.241Z,2.20
2023-05-18T13:15:10.709Z,1.71
2023-05-18T13:17:39.211Z,1.95
2023-05-18T13:20:15.122Z,1.76
2023-05-18T13:22:44.044Z,1.95
2023-05-18T13:25:11.281Z,1.51
2023-05-18T13:27:38.958Z,1.55
2023-05-18T13:30:08.116Z,1.39
2023-05-18T13:32:35.580Z,1.39
2023-05-18T13:35:03.301Z,1.57
2023-05-18T13:37:31.989Z,1.21
2023-05-18T13:39:59.263Z,1.13
2023-05-18T13:42:26.401Z,1.16
2023-05-18T13:44:53.566Z,0.95
2023-05-18T13:47:20.666Z,1.25
2023-05-18T13:49:47.885Z,0.95
2023-05-18T13:52:15.230Z,1.00
2023-05-18T13:54:43.900Z,1.19
2023-05-18T13:57:11.047Z,1.13
2023-05-18T13:59:38.219Z,0.93
2023-05-18T14:02:07.232Z,0.94
2023-05-18T14:04:34.641Z,1.15
2023-05-18T14:07:01.988Z,1.23
2023-05-18T14:09:29.227Z,1.07
2023-05-18T14:11:58.005Z,1.18
2023-05-18T14:14:25.354Z,1.02
2023-05-18T14:16:52.648Z,1.14
2023-05-18T14:19:20.026Z,0.98
2023-05-18T14:21:47.291Z,1.04
2023-05-18T14:24:14.680Z,0.98
2023-05-18T14:26:42.024Z,1.15
2023-05-18T14:29:10.781Z,1.21
2023-05-18T14:31:38.120Z,1.09
2023-05-18T14:34:05.476Z,1.01
2023-05-18T14:36:32.682Z,1.12
2023-05-18T14:38:59.824Z,1.55
2023-05-18T14:41:27.183Z,1.46
2023-05-18T14:43:54.417Z,1.38
2023-05-18T14:46:23.223Z,1.47
2023-05-18T14:48:50.580Z,1.36
2023-05-18T14:51:17.880Z,1.26
2023-05-18T14:53:45.073Z,1.46
2023-05-18T14:56:12.518Z,1.47
2023-05-18T14:58:39.661Z,1.29
2023-05-18T15:01:06.892Z,1.63
2023-05-18T15:03:35.636Z,1.55
2023-05-18T15:06:02.928Z,1.18
2023-05-18T15:08:30.055Z,1.04
2023-05-18T15:10:57.596Z,1.18
2023-05-18T15:13:24.967Z,1.16
2023-05-18T15:15:52.285Z,1.25
2023-05-18T15:18:19.807Z,1.18
2023-05-18T15:20:48.705Z,1.10
2023-05-18T15:23:15.908Z,1.19
2023-05-18T15:25:43.096Z,1.32
2023-05-18T15:28:10.353Z,1.29
2023-05-18T15:30:37.563Z,1.37
2023-05-18T15:33:04.893Z,1.32
2023-05-18T15:35:32.441Z,1.45
2023-05-18T15:38:01.054Z,1.38
2023-05-18T15:40:28.774Z,1.46
2023-05-18T15:42:56.061Z,1.54
2023-05-18T15:45:23.382Z,1.68
2023-05-18T15:47:50.604Z,1.45
2023-05-18T15:50:18.129Z,1.27
2023-05-18T15:52:45.404Z,1.28
2023-05-18T15:55:14.266Z,1.60
2023-05-18T15:57:41.374Z,1.27
2023-05-18T16:00:09.724Z,1.38
2023-05-18T16:02:37.068Z,1.44
2023-05-18T16:05:05.136Z,1.33
2023-05-18T16:07:32.244Z,1.49
2023-05-18T16:09:59.459Z,1.48
2023-05-18T16:12:28.017Z,1.41
2023-05-18T16:14:55.230Z,1.40
2023-05-18T16:17:22.779Z,1.20
2023-05-18T16:19:49.790Z,1.55
2023-05-18T16:22:17.062Z,1.42
2023-05-18T16:24:44.259Z,1.33
2023-05-18T16:27:11.603Z,1.22
2023-05-18T16:29:42.354Z,1.49
2023-05-18T16:32:09.605Z,1.53
2023-05-18T16:34:37.224Z,1.12
2023-05-18T16:37:04.964Z,1.26
2023-05-18T16:39:32.120Z,1.25
2023-05-18T16:41:59.681Z,1.18
2023-05-18T16:44:26.867Z,1.23
2023-05-18T16:46:55.655Z,1.73
2023-05-18T16:49:23.118Z,1.41
2023-05-18T16:51:50.348Z,1.46
2023-05-18T16:54:17.623Z,1.40
2023-05-18T16:56:45.095Z,1.34
2023-05-18T16:59:12.266Z,1.35
2023-05-18T17:01:39.559Z,1.27
2023-05-18T17:04:08.308Z,1.42
2023-05-18T17:06:35.706Z,1.25
2023-05-18T17:09:05.530Z,1.32
2023-05-18T17:11:33.615Z,1.27
2023-05-18T17:14:00.918Z,1.29
2023-05-18T17:16:28.183Z,1.42
2023-05-18T17:18:55.590Z,1.39
2023-05-18T17:21:24.238Z,1.30
2023-05-18T17:23:51.421Z,1.40
2023-05-18T17:26:18.857Z,1.57
2023-05-18T17:28:45.934Z,1.37
2023-05-18T17:31:13.220Z,1.48
2023-05-18T17:33:40.357Z,1.33
2023-05-18T17:36:08.417Z,1.23
2023-05-18T17:38:37.043Z,1.44
2023-05-18T17:41:04.518Z,1.57
2023-05-18T17:43:31.701Z,1.47
2023-05-18T17:45:59.260Z,1.57
2023-05-18T17:48:26.455Z,1.17
2023-05-18T17:50:53.579Z,1.39
2023-05-18T17:53:20.741Z,1.49
2023-05-18T17:55:49.457Z,1.41
2023-05-18T17:58:16.520Z,1.45
2023-05-18T18:00:44.064Z,1.46
2023-05-18T18:03:11.390Z,1.86
2023-05-18T18:05:38.643Z,1.20
2023-05-18T18:08:06.420Z,1.09
2023-05-18T18:10:33.804Z,1.01
2023-05-18T18:13:02.607Z,1.17
2023-05-18T18:15:30.003Z,1.26
2023-05-18T18:17:57.370Z,1.22
2023-05-18T18:20:24.622Z,1.15
2023-05-18T18:22:51.731Z,0.92
2023-05-18T18:25:19.061Z,1.16
2023-05-18T18:27:46.244Z,1.16
2023-05-18T18:30:15.612Z,1.09
2023-05-18T18:32:42.850Z,1.04
2023-05-18T18:35:10.613Z,1.09
2023-05-18T18:37:38.124Z,1.39
2023-05-18T18:40:07.069Z,1.35
2023-05-18T18:42:34.225Z,1.12
2023-05-18T18:45:01.442Z,1.20
2023-05-18T18:47:30.101Z,1.20
2023-05-18T18:49:57.313Z,1.61
2023-05-18T18:52:24.645Z,1.43
2023-05-18T18:54:51.869Z,1.60
2023-05-18T18:57:19.403Z,1.43
2023-05-18T18:59:46.565Z,1.40
2023-05-18T19:02:13.975Z,1.47
2023-05-18T19:04:42.704Z,1.58
2023-05-18T19:07:09.923Z,1.54
2023-05-18T19:09:37.226Z,1.55
2023-05-18T19:12:05.646Z,1.75
2023-05-18T19:14:33.029Z,1.79
2023-05-18T19:17:00.282Z,1.61
2023-05-18T19:19:27.742Z,1.47
2023-05-18T19:21:56.544Z,1.52
2023-05-18T19:24:23.739Z,1.55
2023-05-18T19:26:51.144Z,1.61
2023-05-18T19:29:18.587Z,1.61
2023-05-18T19:31:45.787Z,1.47
2023-05-18T19:34:13.093Z,1.47
2023-05-18T19:36:40.583Z,1.65
2023-05-18T19:39:09.764Z,1.50
2023-05-18T19:41:36.900Z,1.35
2023-05-18T19:44:04.209Z,1.52
2023-05-18T19:46:31.524Z,1.43
2023-05-18T19:48:58.742Z,1.34
2023-05-18T19:51:26.000Z,1.47
2023-05-18T19:53:53.198Z,1.63
2023-05-18T19:56:22.473Z,1.46
2023-05-18T19:58:49.798Z,1.46
2023-05-18T20:01:17.217Z,1.62
2023-05-18T20:03:44.958Z,1.68
2023-05-18T20:06:12.670Z,1.56
2023-05-18T20:08:39.994Z,1.68
2023-05-18T20:11:07.281Z,1.95
2023-05-18T20:13:35.928Z,1.61
2023-05-18T20:16:03.641Z,1.72
2023-05-18T20:18:31.861Z,1.55
2023-05-18T20:20:59.037Z,1.56
2023-05-18T20:23:26.197Z,1.53
2023-05-18T20:25:53.820Z,1.76
2023-05-18T20:28:21.257Z,1.56
2023-05-18T20:30:49.800Z,1.85
2023-05-18T20:33:17.684Z,1.88
2023-05-18T20:35:45.064Z,1.99
2023-05-18T20:38:12.242Z,1.62
2023-05-18T20:40:39.459Z,1.58
2023-05-18T20:43:06.603Z,1.58
2023-05-18T20:45:33.838Z,1.70
2023-05-18T20:48:02.699Z,1.70
2023-05-18T20:50:30.408Z,1.74
2023-05-18T20:52:57.863Z,1.86
2023-05-18T20:55:25.074Z,1.84
2023-05-18T20:57:52.257Z,1.93
2023-05-18T21:00:19.534Z,1.87
2023-05-18T21:02:46.943Z,1.57
2023-05-18T21:05:15.780Z,1.64
2023-05-18T21:07:42.998Z,1.72
2023-05-18T21:10:11.719Z,1.60
2023-05-18T21:12:39.002Z,1.72
2023-05-18T21:15:07.656Z,1.69
2023-05-18T21:17:34.900Z,1.55
2023-05-18T21:20:02.185Z,1.58
2023-05-18T21:22:31.040Z,1.72
2023-05-18T21:24:58.340Z,1.65
2023-05-18T21:27:25.581Z,1.61
2023-05-18T21:29:52.762Z,1.62
2023-05-18T21:32:20.022Z,1.61
2023-05-18T21:34:47.326Z,1.66
2023-05-18T21:37:14.744Z,1.63
2023-05-18T21:39:43.370Z,1.64
2023-05-18T21:42:10.883Z,1.53
2023-05-18T21:44:38.198Z,1.54
2023-05-18T21:47:05.554Z,1.80
2023-05-18T21:49:32.934Z,1.52
2023-05-18T21:52:00.462Z,1.69
2023-05-18T21:54:27.549Z,1.76
2023-05-18T21:56:56.387Z,1.60
2023-05-18T21:59:23.607Z,1.82
2023-05-18T22:01:50.758Z,1.62
2023-05-18T22:04:17.933Z,1.78
2023-05-18T22:06:45.471Z,1.63
2023-05-18T22:09:12.746Z,1.96
2023-05-18T22:11:40.003Z,1.67
2023-05-18T22:14:09.227Z,1.68
2023-05-18T22:16:36.571Z,1.58
2023-05-18T22:19:03.850Z,1.94
2023-05-18T22:21:31.111Z,1.69
2023-05-18T22:23:58.268Z,1.62
2023-05-18T22:26:25.567Z,1.88
2023-05-18T22:28:52.731Z,1.89
2023-05-18T22:31:21.391Z,1.83
2023-05-18T22:33:48.584Z,2.02
2023-05-18T22:36:15.864Z,1.88
2023-05-18T22:38:42.946Z,1.81
2023-05-18T22:41:10.191Z,1.94
2023-05-18T22:43:37.483Z,1.75
2023-05-18T22:46:04.688Z,1.91
2023-05-18T22:48:33.554Z,1.87
2023-05-18T22:51:01.218Z,1.75
2023-05-18T22:53:28.360Z,1.86
2023-05-18T22:55:55.592Z,1.59
2023-05-18T22:58:22.759Z,1.69
2023-05-18T23:00:49.936Z,1.68
2023-05-18T23:03:17.387Z,1.98
2023-05-18T23:05:46.522Z,1.87
2023-05-18T23:08:13.741Z,1.75
2023-05-18T23:10:41.037Z,1.82
2023-05-18T23:13:08.198Z,1.91
2023-05-18T23:15:35.471Z,1.74
2023-05-18T23:18:02.893Z,1.76
2023-05-18T23:20:30.209Z,1.90
2023-05-18T23:22:58.826Z,1.93
2023-05-18T23:25:26.001Z,1.81
2023-05-18T23:27:53.221Z,1.88
2023-05-18T23:30:20.501Z,1.76
2023-05-18T23:32:48.607Z,1.61
2023-05-18T23:35:18.085Z,1.75
2023-05-18T23:37:49.382Z,1.71
2023-05-18T23:40:19.303Z,1.68
2023-05-18T23:42:47.367Z,1.70
2023-05-18T23:45:15.945Z,1.77
2023-05-18T23:47:43.890Z,1.78
2023-05-18T23:50:12.511Z,1.72
2023-05-18T23:52:41.687Z,1.80
2023-05-18T23:55:11.489Z,1.76
2023-05-18T23:57:40.921Z,2.00
